sensor_id;sensor_type;location;lat;lon;timestamp;pressure;altitude;pressure_sealevel;temperature;humidity
78210;BME280;67485;48.816;9.930;2023-09-12T00:00:35;96570.84;;;18.04;74.46
78210;BME280;67485;48.816;9.930;2023-09-12T00:03:01;96577.69;;;18.08;74.42
78210;BME280;67485;48.816;9.930;2023-09-12T00:05:27;96566.59;;;18.01;74.67
78210;BME280;67485;48.816;9.930;2023-09-12T00:07:52;96568.75;;;18.09;74.21
78210;BME280;67485;48.816;9.930;2023-09-12T00:10:21;96568.59;;;18.12;74.50
78210;BME280;67485;48.816;9.930;2023-09-12T00:12:46;96566.22;;;18.07;75.09
78210;BME280;67485;48.816;9.930;2023-09-12T00:15:12;96558.06;;;17.96;75.63
78210;BME280;67485;48.816;9.930;2023-09-12T00:17:38;96551.13;;;17.93;76.24
78210;BME280;67485;48.816;9.930;2023-09-12T00:20:04;96552.41;;;17.72;77.09
78210;BME280;67485;48.816;9.930;2023-09-12T00:22:32;96552.38;;;17.57;77.66
78210;BME280;67485;48.816;9.930;2023-09-12T00:24:57;96552.19;;;17.60;77.26
78210;BME280;67485;48.816;9.930;2023-09-12T00:27:23;96543.47;;;17.58;77.12
78210;BME280;67485;48.816;9.930;2023-09-12T00:29:48;96543.66;;;17.55;77.30
78210;BME280;67485;48.816;9.930;2023-09-12T00:32:14;96532.97;;;17.57;77.57
78210;BME280;67485;48.816;9.930;2023-09-12T00:34:40;96527.47;;;17.45;78.23
78210;BME280;67485;48.816;9.930;2023-09-12T00:37:05;96530.03;;;17.47;78.22
78210;BME280;67485;48.816;9.930;2023-09-12T00:39:31;96525.66;;;17.46;77.78
78210;BME280;67485;48.816;9.930;2023-09-12T00:41:57;96525.84;;;17.43;78.43
78210;BME280;67485;48.816;9.930;2023-09-12T00:44:22;96520.00;;;17.52;77.88
78210;BME280;67485;48.816;9.930;2023-09-12T00:46:49;96515.28;;;17.57;78.25
78210;BME280;67485;48.816;9.930;2023-09-12T00:49:16;96506.41;;;17.58;77.98
78210;BME280;67485;48.816;9.930;2023-09-12T00:51:44;96517.16;;;17.55;77.72
78210;BME280;67485;48.816;9.930;2023-09-12T00:54:10;96503.66;;;17.60;77.42
78210;BME280;67485;48.816;9.930;2023-09-12T00:56:36;96516.00;;;17.45;77.63
78210;BME280;67485;48.816;9.930;2023-09-12T00:59:03;96511.44;;;17.32;78.20
78210;BME280;67485;48.816;9.930;2023-09-12T01:01:31;96513.69;;;17.24;78.79
78210;BME280;67485;48.816;9.930;2023-09-12T01:03:57;96508.75;;;17.18;78.79
78210;BME280;67485;48.816;9.930;2023-09-12T01:06:24;96512.34;;;17.17;78.73
78210;BME280;67485;48.816;9.930;2023-09-12T01:08:53;96521.06;;;17.03;80.06
78210;BME280;67485;48.816;9.930;2023-09-12T01:11:20;96523.38;;;16.93;81.11
78210;BME280;67485;48.816;9.930;2023-09-12T01:13:46;96526.38;;;17.03;80.30
78210;BME280;67485;48.816;9.930;2023-09-12T01:16:11;96525.69;;;16.99;80.34
78210;BME280;67485;48.816;9.930;2023-09-12T01:18:37;96528.91;;;17.05;80.10
78210;BME280;67485;48.816;9.930;2023-09-12T01:26:39;96532.25;;;17.39;78.52
78210;BME280;67485;48.816;9.930;2023-09-12T01:29:07;96534.06;;;17.38;77.47
78210;BME280;67485;48.816;9.930;2023-09-12T01:31:36;96535.19;;;17.34;77.17
78210;BME280;67485;48.816;9.930;2023-09-12T01:34:10;96540.66;;;17.31;76.78
78210;BME280;67485;48.816;9.930;2023-09-12T01:36:36;96531.66;;;17.19;77.74
78210;BME280;67485;48.816;9.930;2023-09-12T01:39:02;96528.41;;;17.14;77.59
78210;BME280;67485;48.816;9.930;2023-09-12T01:41:30;96528.75;;;17.08;77.98
78210;BME280;67485;48.816;9.930;2023-09-12T01:43:59;96534.06;;;17.08;78.03
78210;BME280;67485;48.816;9.930;2023-09-12T01:46:25;96529.69;;;17.07;77.96
78210;BME280;67485;48.816;9.930;2023-09-12T01:49:19;96526.69;;;17.13;78.10
78210;BME280;67485;48.816;9.930;2023-09-12T01:51:47;96537.06;;;17.01;78.62
78210;BME280;67485;48.816;9.930;2023-09-12T01:54:14;96531.75;;;17.01;78.34
78210;BME280;67485;48.816;9.930;2023-09-12T01:56:40;96541.72;;;16.80;80.29
78210;BME280;67485;48.816;9.930;2023-09-12T01:59:06;96533.69;;;16.82;80.35
78210;BME280;67485;48.816;9.930;2023-09-12T02:01:32;96542.75;;;16.94;79.64
78210;BME280;67485;48.816;9.930;2023-09-12T02:03:58;96533.19;;;16.91;79.61
78210;BME280;67485;48.816;9.930;2023-09-12T02:06:23;96540.50;;;16.86;80.32
78210;BME280;67485;48.816;9.930;2023-09-12T02:08:49;96541.28;;;16.88;80.00
78210;BME280;67485;48.816;9.930;2023-09-12T02:11:15;96542.75;;;16.78;81.20
78210;BME280;67485;48.816;9.930;2023-09-12T02:13:40;96546.69;;;16.70;82.40
78210;BME280;67485;48.816;9.930;2023-09-12T02:16:07;96541.97;;;16.76;81.42
78210;BME280;67485;48.816;9.930;2023-09-12T02:18:33;96536.94;;;16.87;80.92
78210;BME280;67485;48.816;9.930;2023-09-12T02:20:59;96544.72;;;16.90;80.50
78210;BME280;67485;48.816;9.930;2023-09-12T02:23:24;96538.41;;;16.77;80.78
78210;BME280;67485;48.816;9.930;2023-09-12T02:25:50;96541.38;;;16.70;81.24
78210;BME280;67485;48.816;9.930;2023-09-12T02:28:16;96543.09;;;16.72;81.58
78210;BME280;67485;48.816;9.930;2023-09-12T02:30:41;96549.31;;;16.70;81.27
78210;BME280;67485;48.816;9.930;2023-09-12T02:33:07;96549.81;;;16.61;82.18
78210;BME280;67485;48.816;9.930;2023-09-12T02:35:32;96547.03;;;16.64;81.83
78210;BME280;67485;48.816;9.930;2023-09-12T02:37:58;96541.38;;;16.70;81.18
78210;BME280;67485;48.816;9.930;2023-09-12T02:40:24;96541.88;;;16.77;80.90
78210;BME280;67485;48.816;9.930;2023-09-12T02:42:50;96548.06;;;16.78;80.62
78210;BME280;67485;48.816;9.930;2023-09-12T02:45:16;96542.81;;;16.76;80.92
78210;BME280;67485;48.816;9.930;2023-09-12T02:47:41;96536.69;;;16.76;80.63
78210;BME280;67485;48.816;9.930;2023-09-12T02:50:09;96546.50;;;16.74;80.35
78210;BME280;67485;48.816;9.930;2023-09-12T02:52:35;96533.19;;;16.75;80.26
78210;BME280;67485;48.816;9.930;2023-09-12T02:55:00;96535.91;;;16.74;80.08
78210;BME280;67485;48.816;9.930;2023-09-12T02:57:26;96525.50;;;16.70;80.24
78210;BME280;67485;48.816;9.930;2023-09-12T02:59:52;96521.84;;;16.57;81.07
78210;BME280;67485;48.816;9.930;2023-09-12T03:02:17;96529.09;;;16.53;81.58
78210;BME280;67485;48.816;9.930;2023-09-12T03:04:43;96522.44;;;16.62;81.26
78210;BME280;67485;48.816;9.930;2023-09-12T03:07:09;96516.72;;;16.54;81.09
78210;BME280;67485;48.816;9.930;2023-09-12T03:09:34;96527.03;;;16.59;81.27
78210;BME280;67485;48.816;9.930;2023-09-12T03:12:04;96517.00;;;16.65;80.54
78210;BME280;67485;48.816;9.930;2023-09-12T03:14:30;96512.19;;;16.72;80.58
78210;BME280;67485;48.816;9.930;2023-09-12T03:16:56;96511.69;;;16.65;80.40
78210;BME280;67485;48.816;9.930;2023-09-12T03:19:22;96506.91;;;16.56;80.56
78210;BME280;67485;48.816;9.930;2023-09-12T03:21:48;96501.34;;;16.45;81.34
78210;BME280;67485;48.816;9.930;2023-09-12T03:24:13;96508.94;;;16.35;82.28
78210;BME280;67485;48.816;9.930;2023-09-12T03:26:39;96513.75;;;16.44;81.39
78210;BME280;67485;48.816;9.930;2023-09-12T03:29:05;96508.69;;;16.40;81.66
78210;BME280;67485;48.816;9.930;2023-09-12T03:31:31;96508.94;;;16.35;81.28
78210;BME280;67485;48.816;9.930;2023-09-12T03:33:57;96508.00;;;16.20;82.11
78210;BME280;67485;48.816;9.930;2023-09-12T03:36:23;96507.84;;;16.23;82.56
78210;BME280;67485;48.816;9.930;2023-09-12T03:38:48;96498.78;;;16.27;82.27
78210;BME280;67485;48.816;9.930;2023-09-12T03:41:14;96503.00;;;16.31;82.27
78210;BME280;67485;48.816;9.930;2023-09-12T03:43:40;96501.44;;;16.27;82.31
78210;BME280;67485;48.816;9.930;2023-09-12T03:46:05;96493.59;;;16.26;82.43
78210;BME280;67485;48.816;9.930;2023-09-12T03:48:31;96491.38;;;16.34;82.16
78210;BME280;67485;48.816;9.930;2023-09-12T03:50:57;96495.72;;;16.35;81.60
78210;BME280;67485;48.816;9.930;2023-09-12T03:53:23;96486.78;;;16.37;81.63
78210;BME280;67485;48.816;9.930;2023-09-12T03:55:49;96478.06;;;16.35;81.55
78210;BME280;67485;48.816;9.930;2023-09-12T03:58:14;96484.16;;;16.37;81.74
78210;BME280;67485;48.816;9.930;2023-09-12T04:00:40;96479.94;;;16.33;81.47
78210;BME280;67485;48.816;9.930;2023-09-12T04:03:06;96485.69;;;16.42;81.07
78210;BME280;67485;48.816;9.930;2023-09-12T04:05:31;96482.59;;;16.33;81.64
78210;BME280;67485;48.816;9.930;2023-09-12T04:07:57;96477.22;;;16.35;81.38
78210;BME280;67485;48.816;9.930;2023-09-12T04:10:23;96475.69;;;16.31;81.42
78210;BME280;67485;48.816;9.930;2023-09-12T04:12:48;96477.63;;;16.27;81.88
78210;BME280;67485;48.816;9.930;2023-09-12T04:15:14;96482.19;;;16.25;81.84
78210;BME280;67485;48.816;9.930;2023-09-12T04:17:40;96485.22;;;16.17;82.47
78210;BME280;67485;48.816;9.930;2023-09-12T04:20:06;96486.75;;;16.05;83.05
78210;BME280;67485;48.816;9.930;2023-09-12T04:22:33;96490.81;;;15.95;83.86
78210;BME280;67485;48.816;9.930;2023-09-12T04:24:59;96495.31;;;15.93;84.25
78210;BME280;67485;48.816;9.930;2023-09-12T04:27:24;96499.31;;;15.84;84.65
78210;BME280;67485;48.816;9.930;2023-09-12T04:29:51;96494.72;;;15.88;84.14
78210;BME280;67485;48.816;9.930;2023-09-12T04:32:16;96500.69;;;15.92;83.45
78210;BME280;67485;48.816;9.930;2023-09-12T04:34:51;96500.88;;;16.04;82.67
78210;BME280;67485;48.816;9.930;2023-09-12T04:37:17;96493.75;;;16.07;82.84
78210;BME280;67485;48.816;9.930;2023-09-12T04:39:44;96500.41;;;16.14;82.19
78210;BME280;67485;48.816;9.930;2023-09-12T04:42:10;96502.63;;;16.21;81.75
78210;BME280;67485;48.816;9.930;2023-09-12T04:44:36;96503.31;;;16.25;81.43
78210;BME280;67485;48.816;9.930;2023-09-12T04:47:02;96510.97;;;16.30;81.04
78210;BME280;67485;48.816;9.930;2023-09-12T04:49:28;96507.56;;;16.12;81.65
78210;BME280;67485;48.816;9.930;2023-09-12T04:51:54;96509.66;;;15.89;83.02
78210;BME280;67485;48.816;9.930;2023-09-12T04:54:20;96509.09;;;15.82;83.38
78210;BME280;67485;48.816;9.930;2023-09-12T04:56:45;96509.03;;;15.84;83.21
78210;BME280;67485;48.816;9.930;2023-09-12T04:59:11;96506.13;;;15.88;82.82
78210;BME280;67485;48.816;9.930;2023-09-12T05:01:37;96508.41;;;15.96;82.07
78210;BME280;67485;48.816;9.930;2023-09-12T05:04:02;96505.91;;;15.93;82.58
78210;BME280;67485;48.816;9.930;2023-09-12T05:06:29;96509.16;;;15.81;83.62
78210;BME280;67485;48.816;9.930;2023-09-12T05:08:55;96509.47;;;15.75;83.83
78210;BME280;67485;48.816;9.930;2023-09-12T05:11:24;96509.72;;;15.70;84.61
78210;BME280;67485;48.816;9.930;2023-09-12T05:13:50;96511.09;;;15.77;84.02
78210;BME280;67485;48.816;9.930;2023-09-12T05:16:16;96511.88;;;15.79;84.09
78210;BME280;67485;48.816;9.930;2023-09-12T05:18:42;96506.81;;;15.92;83.23
78210;BME280;67485;48.816;9.930;2023-09-12T05:21:08;96511.56;;;16.03;82.28
78210;BME280;67485;48.816;9.930;2023-09-12T05:23:33;96506.53;;;16.14;81.60
78210;BME280;67485;48.816;9.930;2023-09-12T05:25:59;96506.38;;;16.33;80.93
78210;BME280;67485;48.816;9.930;2023-09-12T05:28:25;96501.94;;;16.50;80.25
78210;BME280;67485;48.816;9.930;2023-09-12T05:30:52;96511.53;;;16.36;80.59
78210;BME280;67485;48.816;9.930;2023-09-12T05:33:18;96508.78;;;16.38;80.67
78210;BME280;67485;48.816;9.930;2023-09-12T05:35:44;96512.22;;;16.40;80.95
78210;BME280;67485;48.816;9.930;2023-09-12T05:38:10;96501.00;;;16.19;82.16
78210;BME280;67485;48.816;9.930;2023-09-12T05:40:36;96500.47;;;16.12;82.88
78210;BME280;67485;48.816;9.930;2023-09-12T05:43:02;96509.09;;;16.16;83.10
78210;BME280;67485;48.816;9.930;2023-09-12T05:45:28;96507.59;;;16.28;82.56
78210;BME280;67485;48.816;9.930;2023-09-12T05:47:56;96503.84;;;16.32;82.55
78210;BME280;67485;48.816;9.930;2023-09-12T05:50:22;96506.72;;;16.27;83.39
78210;BME280;67485;48.816;9.930;2023-09-12T05:52:49;96509.63;;;16.23;84.35
78210;BME280;67485;48.816;9.930;2023-09-12T05:55:15;96512.00;;;16.27;84.64
78210;BME280;67485;48.816;9.930;2023-09-12T05:57:41;96506.06;;;16.40;84.21
78210;BME280;67485;48.816;9.930;2023-09-12T06:00:07;96510.84;;;16.49;84.01
78210;BME280;67485;48.816;9.930;2023-09-12T06:02:41;96506.75;;;16.59;84.01
78210;BME280;67485;48.816;9.930;2023-09-12T06:05:08;96508.63;;;16.73;84.37
78210;BME280;67485;48.816;9.930;2023-09-12T06:07:34;96503.81;;;16.80;83.79
78210;BME280;67485;48.816;9.930;2023-09-12T06:10:00;96512.81;;;16.93;82.36
78210;BME280;67485;48.816;9.930;2023-09-12T06:12:26;96513.03;;;17.05;82.91
78210;BME280;67485;48.816;9.930;2023-09-12T06:14:51;96515.44;;;17.09;82.93
78210;BME280;67485;48.816;9.930;2023-09-12T06:17:19;96515.75;;;17.19;82.72
78210;BME280;67485;48.816;9.930;2023-09-12T06:19:45;96512.63;;;17.43;80.33
78210;BME280;67485;48.816;9.930;2023-09-12T06:22:10;96512.25;;;17.63;78.99
78210;BME280;67485;48.816;9.930;2023-09-12T06:24:36;96511.31;;;17.79;78.48
78210;BME280;67485;48.816;9.930;2023-09-12T06:27:04;96516.34;;;17.83;78.65
78210;BME280;67485;48.816;9.930;2023-09-12T06:29:30;96519.34;;;18.08;77.38
78210;BME280;67485;48.816;9.930;2023-09-12T06:31:55;96518.41;;;18.23;77.26
78210;BME280;67485;48.816;9.930;2023-09-12T06:34:22;96514.03;;;18.37;76.30
78210;BME280;67485;48.816;9.930;2023-09-12T06:36:47;96521.13;;;18.51;75.91
78210;BME280;67485;48.816;9.930;2023-09-12T06:39:13;96525.75;;;18.47;77.15
78210;BME280;67485;48.816;9.930;2023-09-12T07:06:05;96520.34;;;19.45;76.23
78210;BME280;67485;48.816;9.930;2023-09-12T07:08:32;96521.81;;;19.49;76.09
78210;BME280;67485;48.816;9.930;2023-09-12T07:10:58;96524.72;;;19.46;77.17
78210;BME280;67485;48.816;9.930;2023-09-12T07:13:31;96521.41;;;19.55;76.17
78210;BME280;67485;48.816;9.930;2023-09-12T07:15:56;96530.03;;;19.59;76.44
78210;BME280;67485;48.816;9.930;2023-09-12T07:18:22;96529.44;;;19.81;74.55
78210;BME280;67485;48.816;9.930;2023-09-12T07:21:00;96527.97;;;20.03;75.90
78210;BME280;67485;48.816;9.930;2023-09-12T07:23:26;96525.81;;;20.34;74.77
78210;BME280;67485;48.816;9.930;2023-09-12T07:25:52;96528.66;;;20.56;73.74
78210;BME280;67485;48.816;9.930;2023-09-12T07:28:18;96524.25;;;20.81;73.06
78210;BME280;67485;48.816;9.930;2023-09-12T07:30:48;96527.38;;;20.99;70.89
78210;BME280;67485;48.816;9.930;2023-09-12T07:34:47;96526.28;;;21.02;69.39
78210;BME280;67485;48.816;9.930;2023-09-12T07:37:14;96523.94;;;21.10;69.24
78210;BME280;67485;48.816;9.930;2023-09-12T07:39:40;96525.00;;;21.32;71.66
78210;BME280;67485;48.816;9.930;2023-09-12T07:42:05;96528.91;;;21.39;73.06
78210;BME280;67485;48.816;9.930;2023-09-12T07:44:31;96535.66;;;21.32;72.89
78210;BME280;67485;48.816;9.930;2023-09-12T07:46:57;96529.59;;;21.30;72.24
78210;BME280;67485;48.816;9.930;2023-09-12T07:49:22;96529.78;;;21.40;71.47
78210;BME280;67485;48.816;9.930;2023-09-12T07:51:51;96532.31;;;21.77;70.55
78210;BME280;67485;48.816;9.930;2023-09-12T07:54:17;96536.88;;;22.33;68.56
78210;BME280;67485;48.816;9.930;2023-09-12T07:56:43;96542.38;;;22.65;67.46
78210;BME280;67485;48.816;9.930;2023-09-12T07:59:09;96544.91;;;22.78;66.83
78210;BME280;67485;48.816;9.930;2023-09-12T08:01:36;96547.03;;;23.07;66.01
78210;BME280;67485;48.816;9.930;2023-09-12T08:04:02;96547.47;;;23.35;65.68
78210;BME280;67485;48.816;9.930;2023-09-12T08:06:28;96546.59;;;23.67;64.50
78210;BME280;67485;48.816;9.930;2023-09-12T08:08:54;96548.28;;;23.68;63.59
78210;BME280;67485;48.816;9.930;2023-09-12T08:11:19;96547.38;;;23.58;62.56
78210;BME280;67485;48.816;9.930;2023-09-12T08:13:48;96552.81;;;23.89;63.01
78210;BME280;67485;48.816;9.930;2023-09-12T08:16:14;96560.97;;;24.29;61.21
78210;BME280;67485;48.816;9.930;2023-09-12T08:18:40;96557.97;;;24.44;61.28
78210;BME280;67485;48.816;9.930;2023-09-12T08:21:05;96551.75;;;24.74;60.81
78210;BME280;67485;48.816;9.930;2023-09-12T08:23:31;96553.53;;;25.15;59.87
78210;BME280;67485;48.816;9.930;2023-09-12T08:25:57;96556.41;;;25.23;59.63
78210;BME280;67485;48.816;9.930;2023-09-12T08:28:22;96551.59;;;25.17;59.64
78210;BME280;67485;48.816;9.930;2023-09-12T08:30:48;96552.44;;;25.27;59.56
78210;BME280;67485;48.816;9.930;2023-09-12T08:33:14;96553.59;;;25.34;59.57
78210;BME280;67485;48.816;9.930;2023-09-12T08:35:39;96553.84;;;25.31;59.58
78210;BME280;67485;48.816;9.930;2023-09-12T08:38:05;96550.25;;;25.52;59.48
78210;BME280;67485;48.816;9.930;2023-09-12T08:40:32;96546.97;;;25.87;59.18
78210;BME280;67485;48.816;9.930;2023-09-12T08:42:58;96554.84;;;26.18;57.63
78210;BME280;67485;48.816;9.930;2023-09-12T08:45:24;96550.13;;;26.30;57.63
78210;BME280;67485;48.816;9.930;2023-09-12T08:47:52;96545.69;;;26.49;57.87
78210;BME280;67485;48.816;9.930;2023-09-12T08:50:20;96547.88;;;26.73;55.67
78210;BME280;67485;48.816;9.930;2023-09-12T08:52:47;96551.03;;;26.96;57.17
78210;BME280;67485;48.816;9.930;2023-09-12T08:55:13;96552.84;;;27.24;55.90
78210;BME280;67485;48.816;9.930;2023-09-12T08:57:42;96555.28;;;27.45;54.44
78210;BME280;67485;48.816;9.930;2023-09-12T09:00:08;96553.06;;;27.58;54.96
78210;BME280;67485;48.816;9.930;2023-09-12T09:02:36;96543.56;;;27.90;54.74
78210;BME280;67485;48.816;9.930;2023-09-12T09:05:04;96548.72;;;28.28;53.06
78210;BME280;67485;48.816;9.930;2023-09-12T09:07:35;96546.34;;;28.51;51.61
78210;BME280;67485;48.816;9.930;2023-09-12T09:10:02;96547.78;;;28.63;51.18
78210;BME280;67485;48.816;9.930;2023-09-12T09:12:31;96549.94;;;29.37;49.41
78210;BME280;67485;48.816;9.930;2023-09-12T09:14:56;96541.34;;;30.24;46.92
78210;BME280;67485;48.816;9.930;2023-09-12T09:17:23;96536.25;;;30.46;44.89
78210;BME280;67485;48.816;9.930;2023-09-12T09:19:49;96543.88;;;30.99;44.21
78210;BME280;67485;48.816;9.930;2023-09-12T09:22:14;96541.28;;;31.45;43.60
78210;BME280;67485;48.816;9.930;2023-09-12T09:24:40;96544.97;;;31.99;42.69
78210;BME280;67485;48.816;9.930;2023-09-12T09:27:06;96550.16;;;31.85;42.97
78210;BME280;67485;48.816;9.930;2023-09-12T09:29:31;96542.84;;;31.86;42.84
78210;BME280;67485;48.816;9.930;2023-09-12T09:32:00;96547.84;;;32.21;41.94
78210;BME280;67485;48.816;9.930;2023-09-12T09:34:30;96549.44;;;32.30;41.04
78210;BME280;67485;48.816;9.930;2023-09-12T09:36:57;96546.66;;;32.38;41.32
78210;BME280;67485;48.816;9.930;2023-09-12T09:39:28;96540.75;;;32.64;40.33
78210;BME280;67485;48.816;9.930;2023-09-12T09:41:57;96532.47;;;33.33;40.02
78210;BME280;67485;48.816;9.930;2023-09-12T09:44:25;96536.34;;;33.82;39.09
78210;BME280;67485;48.816;9.930;2023-09-12T09:46:58;96535.53;;;33.44;38.42
78210;BME280;67485;48.816;9.930;2023-09-12T09:49:26;96530.53;;;33.11;40.01
78210;BME280;67485;48.816;9.930;2023-09-12T09:51:54;96527.44;;;33.73;39.00
78210;BME280;67485;48.816;9.930;2023-09-12T09:54:23;96524.38;;;33.98;37.47
78210;BME280;67485;48.816;9.930;2023-09-12T09:56:52;96522.00;;;34.16;37.73
78210;BME280;67485;48.816;9.930;2023-09-12T09:59:21;96522.44;;;34.20;36.78
78210;BME280;67485;48.816;9.930;2023-09-12T10:01:49;96524.56;;;33.96;36.96
78210;BME280;67485;48.816;9.930;2023-09-12T10:04:17;96524.75;;;33.51;37.57
78210;BME280;67485;48.816;9.930;2023-09-12T10:06:45;96520.38;;;33.72;38.26
78210;BME280;67485;48.816;9.930;2023-09-12T10:09:12;96513.75;;;34.31;36.75
78210;BME280;67485;48.816;9.930;2023-09-12T10:11:40;96517.19;;;34.82;36.67
78210;BME280;67485;48.816;9.930;2023-09-12T10:14:07;96511.84;;;34.60;35.25
78210;BME280;67485;48.816;9.930;2023-09-12T10:16:34;96511.53;;;34.77;34.26
78210;BME280;67485;48.816;9.930;2023-09-12T10:19:25;96512.19;;;35.27;34.43
78210;BME280;67485;48.816;9.930;2023-09-12T10:24:26;96504.13;;;36.34;32.56
78210;BME280;67485;48.816;9.930;2023-09-12T10:26:53;96497.66;;;36.09;32.93
78210;BME280;67485;48.816;9.930;2023-09-12T10:29:20;96496.78;;;35.75;32.75
78210;BME280;67485;48.816;9.930;2023-09-12T10:31:48;96500.53;;;35.60;33.50
78210;BME280;67485;48.816;9.930;2023-09-12T10:34:15;96495.53;;;36.24;33.46
78210;BME280;67485;48.816;9.930;2023-09-12T10:36:42;96493.03;;;36.23;31.97
78210;BME280;67485;48.816;9.930;2023-09-12T10:39:10;96489.47;;;35.95;32.54
78210;BME280;67485;48.816;9.930;2023-09-12T10:41:38;96483.34;;;36.47;32.55
78210;BME280;67485;48.816;9.930;2023-09-12T10:44:17;96485.91;;;36.01;32.34
78210;BME280;67485;48.816;9.930;2023-09-12T10:46:45;96487.59;;;35.89;33.24
78210;BME280;67485;48.816;9.930;2023-09-12T10:49:15;96491.97;;;36.17;32.28
78210;BME280;67485;48.816;9.930;2023-09-12T10:51:42;96489.25;;;36.44;32.19
78210;BME280;67485;48.816;9.930;2023-09-12T10:54:13;96484.75;;;36.70;32.23
78210;BME280;67485;48.816;9.930;2023-09-12T10:56:39;96488.81;;;36.33;31.13
78210;BME280;67485;48.816;9.930;2023-09-12T11:01:33;96485.41;;;37.62;31.14
78210;BME280;67485;48.816;9.930;2023-09-12T11:06:45;96480.22;;;37.86;29.13
78210;BME280;67485;48.816;9.930;2023-09-12T11:11:42;96468.31;;;37.99;28.58
78210;BME280;67485;48.816;9.930;2023-09-12T11:14:08;96482.88;;;37.22;29.16
78210;BME280;67485;48.816;9.930;2023-09-12T11:16:34;96477.00;;;37.57;30.37
78210;BME280;67485;48.816;9.930;2023-09-12T11:21:47;96472.28;;;38.47;26.92
78210;BME280;67485;48.816;9.930;2023-09-12T11:24:14;96478.16;;;38.25;27.14
78210;BME280;67485;48.816;9.930;2023-09-12T11:27:00;96470.50;;;37.90;28.13
78210;BME280;67485;48.816;9.930;2023-09-12T11:29:27;96470.31;;;38.54;26.92
78210;BME280;67485;48.816;9.930;2023-09-12T11:31:56;96467.28;;;38.63;25.03
78210;BME280;67485;48.816;9.930;2023-09-12T11:34:26;96470.31;;;38.54;27.02
78210;BME280;67485;48.816;9.930;2023-09-12T11:36:57;96469.84;;;38.57;27.63
78210;BME280;67485;48.816;9.930;2023-09-12T11:39:28;96480.34;;;38.42;28.04
78210;BME280;67485;48.816;9.930;2023-09-12T11:41:55;96470.84;;;38.44;26.30
78210;BME280;67485;48.816;9.930;2023-09-12T11:44:21;96465.34;;;38.01;26.53
78210;BME280;67485;48.816;9.930;2023-09-12T11:46:48;96474.56;;;37.49;27.30
78210;BME280;67485;48.816;9.930;2023-09-12T11:49:15;96471.88;;;36.97;27.28
78210;BME280;67485;48.816;9.930;2023-09-12T11:51:51;96475.69;;;36.89;28.58
78210;BME280;67485;48.816;9.930;2023-09-12T11:54:18;96467.19;;;36.32;29.12
78210;BME280;67485;48.816;9.930;2023-09-12T11:56:47;96467.66;;;37.01;28.45
78210;BME280;67485;48.816;9.930;2023-09-12T11:59:13;96462.78;;;36.44;30.12
78210;BME280;67485;48.816;9.930;2023-09-12T12:01:39;96468.25;;;35.70;30.15
78210;BME280;67485;48.816;9.930;2023-09-12T12:04:05;96463.59;;;34.75;32.19
78210;BME280;67485;48.816;9.930;2023-09-12T12:06:32;96458.59;;;34.37;32.57
78210;BME280;67485;48.816;9.930;2023-09-12T12:08:58;96454.84;;;34.38;32.77
78210;BME280;67485;48.816;9.930;2023-09-12T12:11:27;96459.13;;;34.26;32.08
78210;BME280;67485;48.816;9.930;2023-09-12T12:13:53;96453.41;;;33.64;32.79
78210;BME280;67485;48.816;9.930;2023-09-12T12:16:19;96456.78;;;34.23;32.60
78210;BME280;67485;48.816;9.930;2023-09-12T12:18:45;96454.75;;;35.15;31.78
78210;BME280;67485;48.816;9.930;2023-09-12T12:21:10;96453.06;;;35.07;30.20
78210;BME280;67485;48.816;9.930;2023-09-12T12:23:36;96448.25;;;35.10;29.80
78210;BME280;67485;48.816;9.930;2023-09-12T12:26:09;96450.34;;;34.59;30.83
78210;BME280;67485;48.816;9.930;2023-09-12T12:28:35;96443.25;;;34.65;31.13
78210;BME280;67485;48.816;9.930;2023-09-12T12:31:01;96441.50;;;34.92;31.44
78210;BME280;67485;48.816;9.930;2023-09-12T12:33:27;96447.34;;;34.47;30.76
78210;BME280;67485;48.816;9.930;2023-09-12T12:36:03;96444.44;;;34.49;30.53
78210;BME280;67485;48.816;9.930;2023-09-12T12:38:37;96443.50;;;33.78;31.47
78210;BME280;67485;48.816;9.930;2023-09-12T12:41:03;96440.59;;;33.79;32.31
78210;BME280;67485;48.816;9.930;2023-09-12T12:43:30;96437.63;;;33.74;32.22
78210;BME280;67485;48.816;9.930;2023-09-12T12:45:57;96432.38;;;33.94;31.87
78210;BME280;67485;48.816;9.930;2023-09-12T12:48:30;96432.56;;;33.71;32.74
78210;BME280;67485;48.816;9.930;2023-09-12T12:50:56;96428.88;;;33.79;30.04
78210;BME280;67485;48.816;9.930;2023-09-12T12:53:39;96422.28;;;33.38;31.58
78210;BME280;67485;48.816;9.930;2023-09-12T12:56:05;96432.44;;;33.14;32.13
78210;BME280;67485;48.816;9.930;2023-09-12T12:58:31;96425.44;;;32.84;32.57
78210;BME280;67485;48.816;9.930;2023-09-12T13:00:57;96412.94;;;33.04;32.54
78210;BME280;67485;48.816;9.930;2023-09-12T13:03:22;96416.72;;;32.73;32.81
78210;BME280;67485;48.816;9.930;2023-09-12T13:05:48;96418.66;;;32.58;33.35
78210;BME280;67485;48.816;9.930;2023-09-12T13:08:14;96405.84;;;32.52;32.73
78210;BME280;67485;48.816;9.930;2023-09-12T13:10:40;96409.91;;;32.77;33.65
78210;BME280;67485;48.816;9.930;2023-09-12T13:13:08;96400.03;;;32.55;33.14
78210;BME280;67485;48.816;9.930;2023-09-12T13:15:33;96403.72;;;32.32;33.33
78210;BME280;67485;48.816;9.930;2023-09-12T13:17:59;96397.09;;;32.71;33.58
78210;BME280;67485;48.816;9.930;2023-09-12T13:20:25;96396.56;;;32.76;32.51
78210;BME280;67485;48.816;9.930;2023-09-12T13:22:50;96393.34;;;32.72;33.56
78210;BME280;67485;48.816;9.930;2023-09-12T13:25:16;96391.41;;;32.66;31.92
78210;BME280;67485;48.816;9.930;2023-09-12T13:27:41;96387.19;;;32.78;33.36
78210;BME280;67485;48.816;9.930;2023-09-12T13:30:07;96387.19;;;32.27;32.59
78210;BME280;67485;48.816;9.930;2023-09-12T13:32:33;96388.91;;;32.05;33.42
78210;BME280;67485;48.816;9.930;2023-09-12T13:34:59;96389.88;;;32.27;34.45
78210;BME280;67485;48.816;9.930;2023-09-12T13:37:24;96395.50;;;32.40;31.95
78210;BME280;67485;48.816;9.930;2023-09-12T13:39:54;96391.34;;;32.59;33.97
78210;BME280;67485;48.816;9.930;2023-09-12T13:42:19;96389.25;;;32.61;32.44